Time;durP1;ratioP1;P1;durP2;ratioP2;P2;SDS_P1;SDS_P2;PMS_P1;PMS_P2;Temp;Humidity;BMP_temperature;BMP_pressure;BME280_temperature;BME280_humidity;BME280_pressure;Samples;Min_cycle;Max_cycle;Signal;HPM_P1;HPM_P2
2021/01/28 00:05:58;;;;;;;;;;;2.60;99.90;;;;;;4955375;29;20658;-77
2021/01/28 00:08:24;;;;;;;14.25;9.80;;;2.60;99.90;;;;;;4950317;29;19934;-80
2021/01/28 00:10:50;;;;;;;14.50;10.48;;;2.60;99.90;;;;;;4932996;29;20060;-79
2021/01/28 00:13:15;;;;;;;16.55;10.82;;;2.60;99.90;;;;;;4936268;29;20032;-79
2021/01/28 00:15:48;;;;;;;16.80;11.00;;;2.60;99.90;;;;;;4926011;29;20115;-80
2021/01/28 00:18:15;;;;;;;15.25;11.15;;;2.70;99.90;;;;;;4942918;29;20042;-79
2021/01/28 00:20:46;;;;;;;18.00;11.60;;;2.60;99.90;;;;;;4952705;29;20064;-80
2021/01/28 00:23:13;;;;;;;18.90;13.45;;;2.50;99.90;;;;;;4953817;29;20039;-78
2021/01/28 00:25:39;;;;;;;16.73;11.73;;;2.50;99.90;;;;;;4930463;28;20055;-79
2021/01/28 00:28:07;;;;;;;14.25;10.77;;;2.50;99.90;;;;;;4946244;29;20030;-80
2021/01/28 00:30:37;;;;;;;17.08;12.30;;;2.50;99.90;;;;;;4945031;29;20035;-79
2021/01/28 00:33:04;;;;;;;18.80;12.70;;;2.40;99.90;;;;;;4936874;29;20020;-80
2021/01/28 00:35:33;;;;;;;16.52;11.63;;;2.40;99.90;;;;;;4944198;29;20038;-79
2021/01/28 00:37:59;;;;;;;17.25;12.25;;;2.40;99.90;;;;;;4936472;29;20095;-80
2021/01/28 00:40:28;;;;;;;19.67;13.48;;;2.40;99.90;;;;;;4938598;29;20384;-79
2021/01/28 00:42:54;;;;;;;17.48;13.30;;;2.40;99.90;;;;;;4937590;28;20051;-79
2021/01/28 00:45:22;;;;;;;16.38;12.52;;;2.40;99.90;;;;;;4942158;29;20027;-79
2021/01/28 00:47:49;;;;;;;19.73;12.95;;;2.40;99.90;;;;;;4942329;29;20082;-80
2021/01/28 00:50:17;;;;;;;20.05;13.57;;;2.40;99.90;;;;;;4938573;29;20043;-79
2021/01/28 00:52:43;;;;;;;19.77;14.27;;;2.40;99.90;;;;;;4938623;28;20024;-78
2021/01/28 00:55:15;;;;;;;18.77;12.68;;;2.40;99.90;;;;;;4945117;29;20031;-81
2021/01/28 00:57:40;;;;;;;20.58;13.55;;;2.30;99.90;;;;;;4938984;28;20039;-78
2021/01/28 01:00:47;;;;;;;19.83;12.90;;;2.40;99.90;;;;;;4941078;29;20047;-76
2021/01/28 01:03:15;;;;;;;19.42;12.88;;;2.50;99.90;;;;;;4933231;28;20070;-81
2021/01/28 01:05:42;;;;;;;21.50;14.13;;;2.50;99.90;;;;;;4941011;29;20032;-76
2021/01/28 01:08:11;;;;;;;20.17;14.23;;;2.50;99.90;;;;;;4943830;28;20031;-82
2021/01/28 01:10:52;;;;;;;22.10;14.75;;;2.50;99.90;;;;;;4938761;29;20103;-79
2021/01/28 01:13:21;;;;;;;20.58;13.45;;;2.50;99.90;;;;;;4923235;29;20032;-77
2021/01/28 01:15:47;;;;;;;19.83;14.27;;;2.50;99.90;;;;;;4945629;29;20100;-79
2021/01/28 01:18:17;;;;;;;22.85;14.05;;;2.70;99.90;;;;;;4942183;29;20123;-79
2021/01/28 01:20:44;;;;;;;22.50;14.85;;;2.60;99.90;;;;;;4936960;29;20040;-84
2021/01/28 01:23:10;;;;;;;24.23;14.45;;;2.60;99.90;;;;;;4947541;28;20032;-81
2021/01/28 01:25:35;;;;;;;22.13;14.63;;;2.60;99.90;;;;;;4943372;29;20051;-81
2021/01/28 01:28:01;;;;;;;25.70;15.52;;;2.70;99.90;;;;;;4952863;29;20043;-80
2021/01/28 01:30:31;;;;;;;21.73;14.80;;;2.70;99.90;;;;;;4942614;29;20143;-81
2021/01/28 01:32:57;;;;;;;20.77;14.30;;;2.70;99.90;;;;;;4938327;29;20024;-80
2021/01/28 01:35:24;;;;;;;21.00;14.65;;;;;;;;;;4947738;28;20058;-81
2021/01/28 01:37:51;;;;;;;21.17;15.07;;;2.70;99.90;;;;;;4949255;29;20027;-79
2021/01/28 01:40:25;;;;;;;21.45;16.23;;;2.20;99.90;;;;;;4949589;29;20484;-81
2021/01/28 01:42:52;;;;;;;23.50;15.80;;;2.70;99.90;;;;;;4939976;29;20099;-80
2021/01/28 01:45:45;;;;;;;24.50;16.20;;;2.70;99.90;;;;;;4930619;29;20032;-81
2021/01/28 01:48:26;;;;;;;21.10;15.60;;;2.70;99.90;;;;;;4941684;29;20050;-79
2021/01/28 01:50:56;;;;;;;23.05;15.63;;;2.70;99.90;;;;;;4945018;29;20023;-80
2021/01/28 01:53:25;;;;;;;23.80;15.45;;;2.70;99.90;;;;;;4952400;29;20039;-79
2021/01/28 01:55:55;;;;;;;22.90;14.70;;;2.70;99.90;;;;;;4951269;28;20521;-80
2021/01/28 01:58:38;;;;;;;22.80;13.97;;;2.80;99.90;;;;;;4949527;29;20035;-80
2021/01/28 02:01:04;;;;;;;19.95;14.38;;;;;;;;;;4932684;29;20028;-81
2021/01/28 02:03:34;;;;;;;20.20;13.98;;;2.80;99.90;;;;;;4950157;29;20020;-81
2021/01/28 02:06:19;;;;;;;20.33;13.35;;;2.80;99.90;;;;;;4951425;29;20042;-80
2021/01/28 02:08:50;;;;;;;20.67;13.93;;;2.80;99.90;;;;;;4953834;29;20040;-80
2021/01/28 02:11:16;;;;;;;22.88;14.32;;;2.80;99.90;;;;;;4949205;28;20030;-81
2021/01/28 02:13:44;;;;;;;21.25;14.10;;;2.80;99.90;;;;;;4944310;29;20028;-77
2021/01/28 02:16:13;;;;;;;22.67;14.73;;;2.90;99.90;;;;;;4952966;29;20056;-79
2021/01/28 02:18:41;;;;;;;22.15;14.52;;;2.90;99.90;;;;;;4959919;29;20032;-80
2021/01/28 02:21:09;;;;;;;20.45;13.93;;;2.90;99.90;;;;;;4949426;28;20040;-80
2021/01/28 02:24:12;;;;;;;21.65;15.18;;;2.90;99.90;;;;;;4937109;29;20084;-81
2021/01/28 02:26:42;;;;;;;23.60;14.55;;;2.90;99.90;;;;;;4950840;28;20055;-80
2021/01/28 02:29:08;;;;;;;19.52;13.30;;;2.90;99.90;;;;;;4938065;29;20040;-81
2021/01/28 02:31:36;;;;;;;22.00;13.75;;;2.90;99.90;;;;;;4949259;29;20048;-78
2021/01/28 02:34:06;;;;;;;18.90;13.48;;;3.00;99.90;;;;;;4931339;29;20027;-80
2021/01/28 02:36:44;;;;;;;22.13;14.43;;;3.00;99.90;;;;;;4950810;28;20221;-79
2021/01/28 02:39:14;;;;;;;23.23;14.00;;;3.00;99.90;;;;;;4941594;29;20036;-80
2021/01/28 02:41:42;;;;;;;19.75;13.23;;;3.00;99.90;;;;;;4919534;29;20032;-78
2021/01/28 02:44:07;;;;;;;23.02;14.55;;;3.00;99.90;;;;;;4940738;29;20036;-77
2021/01/28 02:46:33;;;;;;;22.88;14.60;;;3.00;99.90;;;;;;4943747;28;20019;-79
2021/01/28 02:48:59;;;;;;;20.42;14.02;;;3.00;99.90;;;;;;4955716;29;20039;-82
2021/01/28 02:51:25;;;;;;;22.20;14.38;;;3.00;99.90;;;;;;4948473;29;20016;-82
2021/01/28 02:53:52;;;;;;;21.42;13.93;;;3.00;99.90;;;;;;4953687;29;20036;-81
2021/01/28 02:56:23;;;;;;;21.38;14.70;;;3.10;99.90;;;;;;4941334;29;20020;-82
2021/01/28 02:58:52;;;;;;;19.88;13.48;;;3.10;99.90;;;;;;4952350;29;20036;-81
2021/01/28 03:01:19;;;;;;;20.50;14.35;;;3.10;99.90;;;;;;4954607;29;20485;-82
2021/01/28 03:03:44;;;;;;;20.77;13.88;;;3.10;99.90;;;;;;4948348;29;20468;-82
2021/01/28 03:06:11;;;;;;;19.35;12.73;;;3.20;99.90;;;;;;4939971;29;20023;-80
2021/01/28 03:08:37;;;;;;;20.50;13.35;;;3.20;99.90;;;;;;4960147;29;20047;-78
2021/01/28 03:11:04;;;;;;;19.23;14.10;;;3.20;99.90;;;;;;4938156;29;20032;-80
2021/01/28 03:13:30;;;;;;;23.25;14.43;;;3.20;99.90;;;;;;4942918;29;20043;-80
2021/01/28 03:15:56;;;;;;;19.45;12.50;;;3.20;99.90;;;;;;4958630;28;20032;-80
2021/01/28 03:18:23;;;;;;;20.73;14.10;;;3.20;99.90;;;;;;4950640;28;20043;-77
2021/01/28 03:20:49;;;;;;;18.27;12.52;;;3.30;99.90;;;;;;4934127;29;20067;-80
2021/01/28 03:23:15;;;;;;;19.35;12.52;;;3.20;99.90;;;;;;4944138;29;20043;-79
2021/01/28 03:25:41;;;;;;;20.92;13.00;;;3.20;99.90;;;;;;4944896;29;20550;-78
2021/01/28 03:28:07;;;;;;;19.70;13.70;;;3.20;99.90;;;;;;4947735;29;20032;-77
2021/01/28 03:30:37;;;;;;;19.77;12.65;;;3.30;99.90;;;;;;4943720;28;20408;-77
2021/01/28 03:33:05;;;;;;;19.63;12.43;;;3.30;99.90;;;;;;4948270;29;20053;-77
2021/01/28 03:35:33;;;;;;;18.20;12.45;;;3.30;99.90;;;;;;4952964;28;20032;-77
2021/01/28 03:37:58;;;;;;;20.65;13.20;;;3.30;99.90;;;;;;4951421;29;20225;-78
2021/01/28 03:40:26;;;;;;;19.60;13.75;;;3.30;99.90;;;;;;4947799;29;20024;-77
2021/01/28 03:42:52;;;;;;;19.85;12.55;;;3.30;99.90;;;;;;4945534;29;20050;-81
2021/01/28 03:45:18;;;;;;;21.52;14.02;;;3.40;99.90;;;;;;4948632;29;20019;-80
2021/01/28 03:47:44;;;;;;;20.85;13.77;;;3.40;99.90;;;;;;4964011;28;20027;-80
2021/01/28 03:50:14;;;;;;;19.65;13.63;;;3.40;99.90;;;;;;4960297;28;20050;-79
2021/01/28 03:52:39;;;;;;;20.15;14.05;;;3.40;99.90;;;;;;4939332;29;20052;-80
2021/01/28 03:55:06;;;;;;;20.42;13.13;;;3.40;99.90;;;;;;4922002;29;20087;-77
2021/01/28 03:57:32;;;;;;;21.45;13.63;;;3.40;99.90;;;;;;4952856;29;20031;-81
2021/01/28 03:59:58;;;;;;;20.05;13.85;;;3.40;99.90;;;;;;4953638;28;20511;-77
2021/01/28 04:02:27;;;;;;;22.00;14.35;;;3.40;99.90;;;;;;4947654;29;20020;-79
2021/01/28 04:04:53;;;;;;;22.80;14.23;;;3.40;99.90;;;;;;4941612;29;20452;-78
2021/01/28 04:07:18;;;;;;;19.38;12.45;;;3.40;99.90;;;;;;4953822;29;20032;-79
2021/01/28 04:09:44;;;;;;;19.60;12.80;;;3.50;99.90;;;;;;4944256;29;20048;-79
2021/01/28 04:12:13;;;;;;;20.25;13.75;;;3.50;99.90;;;;;;4955368;28;20047;-78
2021/01/28 04:14:39;;;;;;;20.20;13.13;;;3.50;99.90;;;;;;4942262;29;20027;-79
2021/01/28 04:17:05;;;;;;;23.77;14.70;;;3.50;99.90;;;;;;4947214;28;20084;-79
2021/01/28 04:19:33;;;;;;;21.48;13.40;;;3.50;99.90;;;;;;4952635;29;20028;-79
2021/01/28 04:21:59;;;;;;;19.75;13.95;;;3.50;99.90;;;;;;4946585;29;20039;-77
2021/01/28 04:24:27;;;;;;;21.73;13.57;;;3.50;99.90;;;;;;4945873;29;20064;-77
2021/01/28 04:26:52;;;;;;;22.52;13.63;;;3.50;99.90;;;;;;4946806;28;20051;-79
2021/01/28 04:29:18;;;;;;;21.42;13.75;;;3.50;99.90;;;;;;4952213;29;20114;-78
2021/01/28 04:31:44;;;;;;;22.27;14.32;;;3.50;99.90;;;;;;4943783;29;20027;-79
2021/01/28 04:34:09;;;;;;;22.88;13.70;;;3.50;99.90;;;;;;4943014;29;20028;-78
2021/01/28 04:36:36;;;;;;;23.15;14.85;;;3.50;99.90;;;;;;4945613;29;20158;-80
2021/01/28 04:39:04;;;;;;;22.75;14.05;;;3.60;99.90;;;;;;4933650;29;20037;-80
2021/01/28 04:41:31;;;;;;;22.15;14.90;;;3.60;99.90;;;;;;4948316;29;20020;-79
2021/01/28 04:43:59;;;;;;;17.88;12.63;;;3.60;99.90;;;;;;4939508;29;20144;-77
2021/01/28 04:46:36;;;;;;;23.65;14.82;;;3.60;99.90;;;;;;4945043;29;20034;-79
2021/01/28 04:49:05;;;;;;;20.30;13.63;;;3.60;99.90;;;;;;4955389;28;20051;-80
2021/01/28 04:51:32;;;;;;;18.45;13.20;;;3.70;99.90;;;;;;4969350;29;20027;-78
2021/01/28 04:54:06;;;;;;;21.10;14.00;;;3.80;99.90;;;;;;4937023;29;20055;-77
2021/01/28 04:56:33;;;;;;;22.42;14.68;;;3.70;99.90;;;;;;4952528;29;20032;-80
2021/01/28 04:59:23;;;;;;;21.05;13.27;;;3.80;99.90;;;;;;4939722;29;20019;-80
2021/01/28 05:01:50;;;;;;;20.60;12.40;;;3.80;99.90;;;;;;4940268;29;20437;-79
2021/01/28 05:04:19;;;;;;;21.52;13.48;;;3.60;99.90;;;;;;4957130;28;20449;-78
2021/01/28 05:06:53;;;;;;;20.38;13.70;;;3.80;99.90;;;;;;4936943;29;20031;-79
2021/01/28 05:09:20;;;;;;;21.20;14.13;;;;;;;;;;4942168;28;20054;-78
2021/01/28 05:11:58;;;;;;;22.05;13.63;;;3.90;99.90;;;;;;4930912;29;20028;-79
2021/01/28 05:14:30;;;;;;;21.05;12.93;;;3.80;99.90;;;;;;4941031;28;20504;-79
2021/01/28 05:17:02;;;;;;;21.73;14.02;;;3.90;99.90;;;;;;4925996;29;20040;-80
2021/01/28 05:19:49;;;;;;;22.52;14.38;;;4.00;99.90;;;;;;4914300;29;20028;-78
2021/01/28 05:22:21;;;;;;;20.10;13.88;;;4.00;99.90;;;;;;4946314;28;20032;-78
2021/01/28 05:24:59;;;;;;;22.10;13.90;;;4.00;99.90;;;;;;4924035;28;20042;-78
2021/01/28 05:27:26;;;;;;;23.95;14.95;;;4.00;99.90;;;;;;4942822;29;20075;-80
2021/01/28 05:30:00;;;;;;;22.77;14.63;;;4.00;99.90;;;;;;4931856;29;20485;-79
2021/01/28 05:32:36;;;;;;;19.80;13.75;;;4.10;99.90;;;;;;4936308;29;20016;-78
2021/01/28 05:35:31;;;;;;;21.88;14.00;;;4.00;99.90;;;;;;4939488;28;20036;-79
2021/01/28 05:38:27;;;;;;;22.00;14.10;;;4.10;99.90;;;;;;4947534;29;20059;-82
2021/01/28 05:40:59;;;;;;;21.98;13.73;;;4.10;99.90;;;;;;4958428;28;20026;-83
2021/01/28 05:43:40;;;;;;;22.67;14.05;;;4.10;99.90;;;;;;4944240;29;20100;-82
2021/01/28 05:46:23;;;;;;;21.73;14.38;;;4.10;99.90;;;;;;4942557;29;20016;-81
2021/01/28 05:49:01;;;;;;;22.15;14.60;;;4.10;99.90;;;;;;4924508;29;20072;-83
2021/01/28 05:51:36;;;;;;;23.30;15.38;;;4.10;99.90;;;;;;4945859;29;20060;-79
2021/01/28 05:54:08;;;;;;;23.45;14.10;;;4.10;99.90;;;;;;4939853;29;20020;-80
2021/01/28 05:57:08;;;;;;;21.77;14.27;;;4.10;99.90;;;;;;4937514;28;20020;-79
2021/01/28 05:59:36;;;;;;;20.80;12.95;;;4.10;99.90;;;;;;4929932;29;20027;-79
2021/01/28 06:02:25;;;;;;;22.88;14.50;;;4.10;99.90;;;;;;4945015;28;20052;-79
2021/01/28 06:05:14;;;;;;;24.88;15.27;;;4.20;99.90;;;;;;4950198;29;20063;-80
2021/01/28 06:08:25;;;;;;;21.60;13.95;;;4.20;99.90;;;;;;4951338;28;20034;-83
2021/01/28 06:11:11;;;;;;;25.67;15.05;;;4.30;99.90;;;;;;4927474;29;20086;-77
2021/01/28 06:14:08;;;;;;;21.40;14.15;;;4.20;99.90;;;;;;4920748;29;20039;-79
2021/01/28 06:16:53;;;;;;;23.02;14.20;;;4.30;99.90;;;;;;4944931;28;20024;-77
2021/01/28 06:19:19;;;;;;;23.23;14.98;;;;;;;;;;4936309;29;20032;-79
2021/01/28 06:22:04;;;;;;;24.25;13.70;;;4.30;99.90;;;;;;4931190;29;20048;-80
2021/01/28 06:25:04;;;;;;;24.90;14.73;;;4.30;99.90;;;;;;4902937;29;20060;-80
2021/01/28 06:27:54;;;;;;;22.55;14.00;;;4.40;99.90;;;;;;4922021;28;20046;-79
2021/01/28 06:30:19;;;;;;;22.85;14.18;;;4.40;99.90;;;;;;4900810;29;20043;-79
2021/01/28 06:32:57;;;;;;;24.45;15.20;;;4.40;99.90;;;;;;4916050;29;20100;-79
2021/01/28 06:35:44;;;;;;;22.17;14.50;;;4.40;99.90;;;;;;4931187;29;20408;-81
2021/01/28 06:38:28;;;;;;;24.40;15.35;;;4.40;99.90;;;;;;4909074;29;20028;-80
2021/01/28 06:41:01;;;;;;;24.38;14.85;;;4.40;99.90;;;;;;4930546;29;20032;-80
2021/01/28 06:43:35;;;;;;;25.75;14.65;;;4.40;99.90;;;;;;4934043;29;20053;-81
2021/01/28 06:46:27;;;;;;;24.80;14.48;;;4.50;99.90;;;;;;4923641;29;20262;-80
2021/01/28 06:49:22;;;;;;;28.70;16.17;;;4.50;99.90;;;;;;4933580;29;20076;-79
2021/01/28 06:52:11;;;;;;;26.15;16.50;;;4.60;99.90;;;;;;4931600;29;20031;-80
2021/01/28 06:55:06;;;;;;;29.70;17.40;;;4.60;99.90;;;;;;4934912;29;20024;-79
2021/01/28 06:57:48;;;;;;;26.75;15.68;;;4.60;99.90;;;;;;4915671;29;20024;-82
2021/01/28 07:00:37;;;;;;;27.80;15.82;;;4.60;99.90;;;;;;4933371;29;20042;-80
2021/01/28 07:03:16;;;;;;;27.73;16.55;;;4.60;99.90;;;;;;4928308;29;20055;-80
2021/01/28 07:06:03;;;;;;;27.30;16.17;;;4.60;99.90;;;;;;4922320;29;20108;-78
2021/01/28 07:08:31;;;;;;;31.30;16.10;;;4.60;99.90;;;;;;4925333;29;20035;-78
2021/01/28 07:10:57;;;;;;;28.42;15.15;;;4.60;99.90;;;;;;4907606;29;20067;-80
2021/01/28 07:13:36;;;;;;;26.80;16.58;;;4.60;99.90;;;;;;4924383;29;20017;-79
2021/01/28 07:16:17;;;;;;;25.95;14.93;;;4.60;99.90;;;;;;4909691;29;20061;-79
2021/01/28 07:18:48;;;;;;;28.77;15.95;;;4.60;99.90;;;;;;4925038;29;20021;-78
2021/01/28 07:21:29;;;;;;;24.00;14.35;;;4.50;99.90;;;;;;4925831;29;20060;-79
2021/01/28 07:24:26;;;;;;;15.23;9.98;;;4.40;99.90;;;;;;4917257;29;20039;-80
2021/01/28 07:27:04;;;;;;;12.80;7.40;;;4.30;99.90;;;;;;4935215;29;20095;-80
2021/01/28 07:29:45;;;;;;;10.63;6.68;;;4.10;99.90;;;;;;4947394;29;20556;-79
2021/01/28 07:32:35;;;;;;;10.82;6.03;;;4.10;99.90;;;;;;4951157;29;20058;-82
2021/01/28 07:35:29;;;;;;;9.70;5.90;;;4.00;99.90;;;;;;4935724;28;20095;-81
2021/01/28 07:37:56;;;;;;;8.82;4.97;;;4.00;99.90;;;;;;4951193;29;20032;-81
2021/01/28 07:40:55;;;;;;;8.20;4.63;;;3.90;99.90;;;;;;4959436;28;20058;-80
2021/01/28 07:43:36;;;;;;;11.48;7.28;;;3.90;99.90;;;;;;4956795;29;20037;-82
2021/01/28 07:46:34;;;;;;;8.27;4.32;;;3.90;99.90;;;;;;4950583;28;20088;-80
2021/01/28 07:49:13;;;;;;;8.52;4.45;;;;;;;;;;4948830;29;20048;-79
2021/01/28 07:51:50;;;;;;;8.73;5.10;;;3.90;99.90;;;;;;4947447;28;20051;-80
2021/01/28 07:54:25;;;;;;;8.50;5.00;;;5.00;99.90;;;;;;4947918;29;20615;-83
2021/01/28 07:56:58;;;;;;;10.98;6.13;;;3.20;99.90;;;;;;4934086;29;20048;-81
2021/01/28 07:59:36;;;;;;;8.95;5.50;;;4.00;99.90;;;;;;4960468;29;20019;-82
2021/01/28 08:02:25;;;;;;;13.73;7.63;;;4.10;99.90;;;;;;4958288;29;20031;-80
2021/01/28 08:05:33;;;;;;;10.07;6.10;;;4.10;99.90;;;;;;4943263;29;20035;-81
2021/01/28 08:08:10;;;;;;;8.88;6.38;;;4.10;99.90;;;;;;4949067;28;20053;-80
2021/01/28 08:10:39;;;;;;;135.50;79.43;;;4.20;99.90;;;;;;4937141;29;20067;-83
2021/01/28 08:13:19;;;;;;;46.40;28.50;;;3.90;99.90;;;;;;4944831;29;20027;-81
2021/01/28 08:16:01;;;;;;;15.88;8.43;;;4.20;99.90;;;;;;4939728;29;20028;-78
2021/01/28 08:18:36;;;;;;;10.70;7.57;;;4.30;99.90;;;;;;4945374;23;20059;-80
2021/01/28 08:21:11;;;;;;;17.45;9.77;;;4.30;99.90;;;;;;4921247;29;20024;-80
2021/01/28 08:23:39;;;;;;;15.52;9.40;;;4.20;99.90;;;;;;4928324;29;20035;-80
2021/01/28 08:26:15;;;;;;;15.02;9.18;;;4.30;99.90;;;;;;4921929;29;20019;-80
2021/01/28 08:28:44;;;;;;;15.95;8.98;;;6.50;99.90;;;;;;4937845;29;20060;-80
2021/01/28 08:31:26;;;;;;;16.15;9.70;;;4.40;99.90;;;;;;4932853;29;20020;-80
2021/01/28 08:33:56;;;;;;;;;;;4.40;99.90;;;;;;4935101;29;20071;-80
2021/01/28 08:36:51;;;;;;;11.82;7.63;;;4.50;99.90;;;;;;4923631;29;19939;-81
2021/01/28 08:42:05;;;;;;;23.13;12.32;;;4.60;99.90;;;;;;4957038;29;20042;-79
2021/01/28 08:44:35;;;;;;;13.15;7.88;;;4.40;99.90;;;;;;4941900;29;20079;-85
2021/01/28 08:47:17;;;;;;;15.38;7.82;;;4.60;99.90;;;;;;4954314;29;20036;-83
2021/01/28 08:49:45;;;;;;;12.40;7.80;;;4.50;99.90;;;;;;4941901;29;20031;-82
2021/01/28 08:52:17;;;;;;;13.43;9.80;;;4.60;99.90;;;;;;4941285;29;20023;-78
2021/01/28 08:54:46;;;;;;;13.50;8.00;;;4.60;99.90;;;;;;4937733;29;20032;-81
2021/01/28 08:57:21;;;;;;;13.00;7.78;;;4.70;99.90;;;;;;4923146;29;20032;-79
2021/01/28 08:59:59;;;;;;;11.73;8.05;;;4.60;99.90;;;;;;5170431;23;20108;-80
2021/01/28 09:02:39;;;;;;;12.27;7.00;;;4.50;99.90;;;;;;4954030;29;20038;-79
2021/01/28 09:05:17;;;;;;;12.23;7.43;;;4.40;99.90;;;;;;4966286;28;20428;-79
2021/01/28 09:07:44;;;;;;;10.23;6.28;;;4.40;99.90;;;;;;4960722;29;20039;-81
2021/01/28 09:10:11;;;;;;;18.90;10.63;;;4.50;99.90;;;;;;4955477;29;20035;-80
2021/01/28 09:12:37;;;;;;;12.43;7.82;;;4.50;99.90;;;;;;4974901;28;20027;-80
2021/01/28 09:15:19;;;;;;;11.23;7.47;;;4.60;99.90;;;;;;4974078;28;20500;-82
2021/01/28 09:17:51;;;;;;;12.50;8.02;;;4.60;99.90;;;;;;4973061;28;20039;-83
2021/01/28 09:20:25;;;;;;;13.50;8.20;;;4.60;99.90;;;;;;4978373;28;20029;-81
2021/01/28 09:23:06;;;;;;;13.70;7.72;;;4.80;99.90;;;;;;4976121;29;20022;-81
2021/01/28 09:25:31;;;;;;;12.05;7.75;;;4.70;99.90;;;;;;4972662;28;20046;-82
2021/01/28 09:28:22;;;;;;;11.35;6.80;;;4.70;99.90;;;;;;4976333;29;20035;-81
2021/01/28 09:30:50;;;;;;;10.60;6.88;;;4.70;99.90;;;;;;4963847;29;20024;-81
2021/01/28 09:33:36;;;;;;;12.77;7.88;;;4.80;99.90;;;;;;4970937;29;20015;-84
2021/01/28 09:36:22;;;;;;;13.48;8.00;;;4.90;99.90;;;;;;4953217;28;20063;-78
2021/01/28 09:39:01;;;;;;;12.15;6.95;;;4.90;99.90;;;;;;4961553;29;20091;-81
2021/01/28 09:41:32;;;;;;;15.05;10.90;;;4.90;99.90;;;;;;4929213;29;20099;-80
2021/01/28 09:43:58;;;;;;;;;;;4.80;99.90;;;;;;4977236;29;20027;-83
2021/01/28 09:46:29;;;;;;;14.43;8.75;;;4.60;99.90;;;;;;4961347;29;19934;-80
2021/01/28 09:49:00;;;;;;;14.45;7.28;;;4.70;99.90;;;;;;4961678;29;20039;-81
2021/01/28 09:51:35;;;;;;;11.40;7.25;;;4.50;99.90;;;;;;4977425;28;20055;-81
2021/01/28 09:54:20;;;;;;;12.40;7.53;;;4.60;99.90;;;;;;4978475;28;20011;-79
2021/01/28 09:56:46;;;;;;;12.90;7.88;;;4.50;99.90;;;;;;4961890;28;20028;-80
2021/01/28 09:59:14;;;;;;;11.25;7.28;;;4.50;99.90;;;;;;4958017;29;20056;-80
2021/01/28 10:01:48;;;;;;;10.13;7.28;;;4.50;99.90;;;;;;4977427;28;20020;-79
2021/01/28 10:04:14;;;;;;;14.25;8.30;;;4.40;99.90;;;;;;4984235;28;20055;-80
2021/01/28 10:06:39;;;;;;;13.63;7.90;;;4.40;99.90;;;;;;4976134;28;20030;-80
2021/01/28 10:09:08;;;;;;;12.98;7.93;;;4.50;99.90;;;;;;4990865;28;20043;-79
2021/01/28 10:11:34;;;;;;;17.30;8.32;;;4.40;99.90;;;;;;4981783;28;20038;-78
2021/01/28 10:14:00;;;;;;;14.63;7.50;;;4.60;99.90;;;;;;4989278;28;20054;-79
2021/01/28 10:16:28;;;;;;;11.45;7.60;;;4.60;99.90;;;;;;4991754;28;20039;-78
2021/01/28 10:18:54;;;;;;;12.43;8.05;;;4.60;99.90;;;;;;4985071;28;20542;-77
2021/01/28 10:21:20;;;;;;;11.13;7.07;;;4.80;99.90;;;;;;4988026;28;20062;-80
2021/01/28 10:23:46;;;;;;;14.85;7.70;;;4.50;99.90;;;;;;4992913;28;20090;-78
2021/01/28 10:26:12;;;;;;;14.68;9.05;;;4.50;99.90;;;;;;4989353;28;20113;-79
2021/01/28 10:28:38;;;;;;;14.23;8.85;;;;;;;;;;4990118;28;20117;-78
2021/01/28 10:31:06;;;;;;;16.98;8.80;;;;;;;;;;4983171;28;20053;-78
2021/01/28 10:33:37;;;;;;;14.27;8.10;;;4.70;99.90;;;;;;4984281;28;20035;-79
2021/01/28 10:36:05;;;;;;;13.30;8.23;;;4.80;99.90;;;;;;4968603;28;20038;-78
2021/01/28 10:38:31;;;;;;;15.98;8.02;;;;;;;;;;4978440;28;20042;-78
2021/01/28 10:40:57;;;;;;;16.63;9.05;;;;;;;;;;4978936;28;20041;-79
2021/01/28 10:43:23;;;;;;;13.50;8.57;;;;;;;;;;4979378;28;20019;-78
2021/01/28 10:45:49;;;;;;;13.93;7.55;;;5.00;99.90;;;;;;4985944;28;20027;-79
2021/01/28 10:48:17;;;;;;;13.05;7.45;;;;;;;;;;4989571;28;20019;-79
2021/01/28 10:50:47;;;;;;;13.85;8.65;;;4.90;99.90;;;;;;4980482;28;20046;-79
2021/01/28 10:53:25;;;;;;;12.60;8.48;;;;;;;;;;4998207;28;20015;-77
2021/01/28 10:55:51;;;;;;;12.13;8.25;;;4.70;99.90;;;;;;4970420;28;20043;-80
2021/01/28 10:58:17;;;;;;;12.50;7.30;;;;;;;;;;4964412;28;20038;-78
2021/01/28 11:00:44;;;;;;;13.48;8.55;;;;;;;;;;4996848;28;20046;-81
2021/01/28 11:03:10;;;;;;;15.00;9.27;;;;;;;;;;4994181;28;20027;-80
2021/01/28 11:05:46;;;;;;;13.85;10.23;;;5.00;99.90;;;;;;4990415;28;20041;-78
2021/01/28 11:08:12;;;;;;;17.30;9.90;;;4.90;99.90;;;;;;4992084;28;20035;-80
2021/01/28 11:10:38;;;;;;;10.48;7.30;;;5.00;99.90;;;;;;4974689;28;20066;-81
2021/01/28 11:13:07;;;;;;;14.85;9.25;;;5.00;99.90;;;;;;4986841;28;20031;-81
2021/01/28 11:15:41;;;;;;;11.68;7.72;;;5.00;99.90;;;;;;4992514;28;20031;-82
2021/01/28 11:18:11;;;;;;;13.57;8.32;;;4.90;99.90;;;;;;4988529;28;20292;-81
2021/01/28 11:20:37;;;;;;;15.75;9.00;;;;;;;;;;4968725;28;20065;-81
2021/01/28 11:23:03;;;;;;;12.40;8.02;;;4.80;99.90;;;;;;4972916;28;20074;-79
2021/01/28 11:25:30;;;;;;;13.95;9.05;;;;;;;;;;4979805;28;20014;-81
2021/01/28 11:27:59;;;;;;;17.60;11.07;;;4.90;99.90;;;;;;4972237;28;20034;-81
2021/01/28 11:30:28;;;;;;;14.23;9.38;;;5.10;99.90;;;;;;4974545;28;20046;-80
2021/01/28 11:32:54;;;;;;;15.45;9.43;;;;;;;;;;4973594;28;20023;-81
2021/01/28 11:35:22;;;;;;;38.40;17.67;;;4.90;99.90;;;;;;4977096;28;20023;-80
2021/01/28 11:37:49;;;;;;;31.20;15.70;;;;;;;;;;4975885;28;20026;-80
2021/01/28 11:40:37;;;;;;;18.98;11.48;;;4.90;99.90;;;;;;4974371;28;20041;-81
2021/01/28 11:43:12;;;;;;;15.00;9.30;;;5.00;99.90;;;;;;4973233;28;20431;-82
2021/01/28 11:45:38;;;;;;;36.63;17.48;;;;;;;;;;4963329;28;20070;-79
2021/01/28 11:48:04;;;;;;;35.83;16.08;;;5.00;99.90;;;;;;4973164;28;20076;-79
2021/01/28 11:50:30;;;;;;;16.85;9.57;;;;;;;;;;4956503;28;20432;-78
2021/01/28 11:52:56;;;;;;;12.77;8.43;;;4.90;99.90;;;;;;4972515;28;20502;-79
2021/01/28 11:55:26;;;;;;;11.25;7.38;;;5.00;99.90;;;;;;4976880;28;20157;-79
2021/01/28 11:57:57;;;;;;;13.45;7.95;;;4.90;99.90;;;;;;4966111;28;20034;-81
2021/01/28 12:00:31;;;;;;;12.70;8.10;;;4.90;99.90;;;;;;4965709;28;20050;-79
2021/01/28 12:02:57;;;;;;;11.60;7.97;;;;;;;;;;4959169;28;20031;-79
2021/01/28 12:05:31;;;;;;;14.68;9.30;;;5.00;99.90;;;;;;4982648;28;20023;-80
2021/01/28 12:08:07;;;;;;;14.82;8.13;;;4.90;99.90;;;;;;4982034;28;20038;-81
2021/01/28 12:10:45;;;;;;;12.95;7.97;;;;;;;;;;4985498;28;20015;-79
2021/01/28 12:13:39;;;;;;;24.10;13.70;;;4.90;99.90;;;;;;4985540;28;20046;-81
2021/01/28 12:16:32;;;;;;;10.77;6.97;;;5.00;99.90;;;;;;4984930;28;20058;-82
2021/01/28 12:19:12;;;;;;;13.98;7.75;;;5.00;99.90;;;;;;4995522;28;20014;-81
2021/01/28 12:24:30;;;;;;;11.93;8.07;;;5.30;99.90;;;;;;4976086;28;20075;-81
2021/01/28 12:26:58;;;;;;;14.57;9.55;;;;;;;;;;4970077;28;20030;-81
2021/01/28 12:29:28;;;;;;;168.45;92.53;;;;;;;;;;4989304;28;20055;-80
2021/01/28 12:31:56;;;;;;;39.30;30.67;;;;;;;;;;4988425;28;20011;-83
2021/01/28 12:34:27;;;;;;;12.13;7.37;;;;;;;;;;4992391;28;20022;-82
2021/01/28 12:36:55;;;;;;;11.10;6.22;;;5.40;99.90;;;;;;4985528;28;20266;-83
2021/01/28 12:39:52;;;;;;;10.00;6.68;;;5.40;99.90;;;;;;4992458;28;20041;-82
2021/01/28 12:42:25;;;;;;;11.20;6.45;;;5.40;99.90;;;;;;4994376;28;20054;-82
2021/01/28 12:45:13;;;;;;;7.97;5.80;;;5.10;99.90;;;;;;4994173;28;20058;-84
2021/01/28 12:48:24;;;;;;;10.27;5.47;;;5.20;99.90;;;;;;5009807;23;20043;-81
2021/01/28 12:50:51;;;;;;;11.73;7.40;;;;;;;;;;4934626;29;20032;-84
2021/01/28 12:53:21;;;;;;;12.45;6.15;;;;;;;;;;4949610;29;20028;-84
2021/01/28 12:55:53;;;;;;;13.55;5.88;;;;;;;;;;4932354;29;20035;-83
2021/01/28 12:58:40;;;;;;;8.43;4.93;;;4.70;99.90;;;;;;4947443;29;20150;-83
2021/01/28 13:01:16;;;;;;;11.07;5.22;;;4.60;99.90;;;;;;4971925;23;20052;-83
2021/01/28 13:03:48;;;;;;;10.20;5.78;;;4.50;99.90;;;;;;4915815;29;20056;-82
2021/01/28 13:06:25;;;;;;;;;;;;;;;;;;;;;
2021/01/28 13:17:27;;;;;;;11.98;5.93;;;;;;;;;;5127679;23;20078;-82
2021/01/28 13:20:07;;;;;;;15.77;5.18;;;4.60;99.90;;;;;;4975517;28;20039;-83
2021/01/28 13:22:33;;;;;;;9.57;5.50;;;;;;;;;;4942348;29;20032;-82
2021/01/28 13:25:01;;;;;;;7.53;4.40;;;4.50;99.90;;;;;;4971722;28;20031;-82
2021/01/28 13:27:51;;;;;;;8.88;5.43;;;4.60;99.90;;;;;;4930705;29;20012;-87
2021/01/28 13:32:49;;;;;;;6.85;4.53;;;;;;;;;;4909347;29;20049;-80
2021/01/28 13:35:36;;;;;;;9.55;5.00;;;4.90;99.90;;;;;;4918676;29;20029;-84
2021/01/28 13:38:05;;;;;;;7.75;4.28;;;4.90;99.90;;;;;;4912140;29;20049;-80
2021/01/28 13:40:55;;;;;;;7.57;4.65;;;4.90;99.90;;;;;;4914308;29;20044;-82
2021/01/28 13:48:50;;;;;;;7.03;5.00;;;;;;;;;;5172030;23;20054;-81
2021/01/28 13:51:28;;;;;;;8.73;5.05;;;;;;;;;;4961114;29;20051;-83